sensor_id;sensor_type;location;lat;lon;timestamp;P1;durP1;ratioP1;P2;durP2;ratioP2
69172;SDS011;56280;49.662;8.408;2023-05-20T00:01:56;5.03;;;3.00;;
69172;SDS011;56280;49.662;8.408;2023-05-20T00:04:21;6.60;;;3.10;;
69172;SDS011;56280;49.662;8.408;2023-05-20T00:06:46;12.13;;;3.33;;
69172;SDS011;56280;49.662;8.408;2023-05-20T00:09:12;5.60;;;3.30;;
69172;SDS011;56280;49.662;8.408;2023-05-20T00:11:37;5.63;;;3.33;;
69172;SDS011;56280;49.662;8.408;2023-05-20T00:14:02;7.60;;;3.53;;
69172;SDS011;56280;49.662;8.408;2023-05-20T00:16:27;5.43;;;3.60;;
69172;SDS011;56280;49.662;8.408;2023-05-20T00:18:53;6.20;;;3.53;;
69172;SDS011;56280;49.662;8.408;2023-05-20T00:21:18;6.20;;;3.37;;
69172;SDS011;56280;49.662;8.408;2023-05-20T00:23:43;5.23;;;3.00;;
69172;SDS011;56280;49.662;8.408;2023-05-20T00:26:08;6.93;;;3.40;;
69172;SDS011;56280;49.662;8.408;2023-05-20T00:28:34;8.73;;;3.83;;
69172;SDS011;56280;49.662;8.408;2023-05-20T00:31:00;7.90;;;3.40;;
69172;SDS011;56280;49.662;8.408;2023-05-20T00:33:25;7.03;;;4.00;;
69172;SDS011;56280;49.662;8.408;2023-05-20T00:35:50;6.60;;;3.80;;
69172;SDS011;56280;49.662;8.408;2023-05-20T00:38:16;5.83;;;3.73;;
69172;SDS011;56280;49.662;8.408;2023-05-20T00:40:41;6.82;;;3.80;;
69172;SDS011;56280;49.662;8.408;2023-05-20T00:43:06;6.70;;;3.57;;
69172;SDS011;56280;49.662;8.408;2023-05-20T00:45:32;5.75;;;3.67;;
69172;SDS011;56280;49.662;8.408;2023-05-20T00:47:57;7.15;;;3.38;;
69172;SDS011;56280;49.662;8.408;2023-05-20T00:50:25;6.00;;;3.88;;
69172;SDS011;56280;49.662;8.408;2023-05-20T00:52:51;6.85;;;3.70;;
69172;SDS011;56280;49.662;8.408;2023-05-20T00:55:19;5.90;;;3.60;;
69172;SDS011;56280;49.662;8.408;2023-05-20T00:57:44;7.63;;;3.70;;
69172;SDS011;56280;49.662;8.408;2023-05-20T01:00:10;7.10;;;3.70;;
69172;SDS011;56280;49.662;8.408;2023-05-20T01:02:35;7.32;;;3.88;;
69172;SDS011;56280;49.662;8.408;2023-05-20T01:05:01;7.23;;;3.67;;
69172;SDS011;56280;49.662;8.408;2023-05-20T01:07:26;6.90;;;3.80;;
69172;SDS011;56280;49.662;8.408;2023-05-20T01:09:51;8.07;;;3.87;;
69172;SDS011;56280;49.662;8.408;2023-05-20T01:12:22;6.95;;;3.92;;
69172;SDS011;56280;49.662;8.408;2023-05-20T01:14:58;7.90;;;4.15;;
69172;SDS011;56280;49.662;8.408;2023-05-20T01:17:30;6.68;;;3.40;;
69172;SDS011;56280;49.662;8.408;2023-05-20T01:20:01;5.73;;;3.60;;
69172;SDS011;56280;49.662;8.408;2023-05-20T01:22:29;6.55;;;3.72;;
69172;SDS011;56280;49.662;8.408;2023-05-20T01:24:54;7.60;;;3.70;;
69172;SDS011;56280;49.662;8.408;2023-05-20T01:27:21;6.97;;;3.65;;
69172;SDS011;56280;49.662;8.408;2023-05-20T01:29:47;8.15;;;3.78;;
69172;SDS011;56280;49.662;8.408;2023-05-20T01:34:46;8.95;;;4.00;;
69172;SDS011;56280;49.662;8.408;2023-05-20T01:37:13;8.93;;;4.22;;
69172;SDS011;56280;49.662;8.408;2023-05-20T01:39:39;6.35;;;3.88;;
69172;SDS011;56280;49.662;8.408;2023-05-20T01:42:07;7.07;;;3.95;;
69172;SDS011;56280;49.662;8.408;2023-05-20T01:44:33;6.72;;;3.92;;
69172;SDS011;56280;49.662;8.408;2023-05-20T01:46:59;6.97;;;3.80;;
69172;SDS011;56280;49.662;8.408;2023-05-20T01:49:25;8.30;;;3.70;;
69172;SDS011;56280;49.662;8.408;2023-05-20T01:51:50;7.33;;;3.97;;
69172;SDS011;56280;49.662;8.408;2023-05-20T01:54:16;6.77;;;4.17;;
69172;SDS011;56280;49.662;8.408;2023-05-20T01:56:41;9.03;;;4.17;;
69172;SDS011;56280;49.662;8.408;2023-05-20T01:59:06;7.30;;;3.87;;
69172;SDS011;56280;49.662;8.408;2023-05-20T02:01:32;7.70;;;4.33;;
69172;SDS011;56280;49.662;8.408;2023-05-20T02:03:57;8.17;;;3.90;;
69172;SDS011;56280;49.662;8.408;2023-05-20T02:06:22;6.00;;;3.83;;
69172;SDS011;56280;49.662;8.408;2023-05-20T02:08:47;7.43;;;4.10;;
69172;SDS011;56280;49.662;8.408;2023-05-20T02:11:13;8.47;;;4.00;;
69172;SDS011;56280;49.662;8.408;2023-05-20T02:13:38;6.57;;;4.10;;
69172;SDS011;56280;49.662;8.408;2023-05-20T02:16:03;8.63;;;4.00;;
69172;SDS011;56280;49.662;8.408;2023-05-20T02:18:29;8.87;;;4.30;;
69172;SDS011;56280;49.662;8.408;2023-05-20T02:20:56;6.65;;;4.20;;
69172;SDS011;56280;49.662;8.408;2023-05-20T02:23:26;6.53;;;4.03;;
69172;SDS011;56280;49.662;8.408;2023-05-20T02:25:51;6.57;;;4.30;;
69172;SDS011;56280;49.662;8.408;2023-05-20T02:28:16;8.97;;;4.23;;
69172;SDS011;56280;49.662;8.408;2023-05-20T02:30:41;7.57;;;4.27;;
69172;SDS011;56280;49.662;8.408;2023-05-20T02:33:07;7.33;;;4.00;;
69172;SDS011;56280;49.662;8.408;2023-05-20T02:35:33;6.95;;;4.40;;
69172;SDS011;56280;49.662;8.408;2023-05-20T02:37:59;7.75;;;4.60;;
69172;SDS011;56280;49.662;8.408;2023-05-20T02:40:24;5.90;;;3.67;;
69172;SDS011;56280;49.662;8.408;2023-05-20T02:42:50;6.90;;;4.60;;
69172;SDS011;56280;49.662;8.408;2023-05-20T02:45:15;6.93;;;3.80;;
69172;SDS011;56280;49.662;8.408;2023-05-20T02:47:40;6.13;;;4.00;;
69172;SDS011;56280;49.662;8.408;2023-05-20T02:50:06;7.30;;;4.27;;
69172;SDS011;56280;49.662;8.408;2023-05-20T02:52:31;6.17;;;3.87;;
69172;SDS011;56280;49.662;8.408;2023-05-20T02:54:57;7.07;;;4.20;;
69172;SDS011;56280;49.662;8.408;2023-05-20T02:57:22;8.02;;;4.93;;
69172;SDS011;56280;49.662;8.408;2023-05-20T02:59:48;7.80;;;4.68;;
69172;SDS011;56280;49.662;8.408;2023-05-20T03:02:13;8.13;;;4.30;;
69172;SDS011;56280;49.662;8.408;2023-05-20T03:04:38;8.20;;;4.20;;
69172;SDS011;56280;49.662;8.408;2023-05-20T03:07:05;6.00;;;4.00;;
69172;SDS011;56280;49.662;8.408;2023-05-20T03:09:31;6.95;;;4.50;;
69172;SDS011;56280;49.662;8.408;2023-05-20T03:11:57;7.00;;;3.90;;
69172;SDS011;56280;49.662;8.408;2023-05-20T03:14:22;7.90;;;4.07;;
69172;SDS011;56280;49.662;8.408;2023-05-20T03:16:47;7.27;;;4.30;;
69172;SDS011;56280;49.662;8.408;2023-05-20T03:19:12;7.20;;;4.10;;
69172;SDS011;56280;49.662;8.408;2023-05-20T03:21:38;8.63;;;4.10;;
69172;SDS011;56280;49.662;8.408;2023-05-20T03:24:03;6.77;;;4.10;;
69172;SDS011;56280;49.662;8.408;2023-05-20T03:26:29;6.30;;;4.70;;
69172;SDS011;56280;49.662;8.408;2023-05-20T03:28:54;6.40;;;4.17;;
69172;SDS011;56280;49.662;8.408;2023-05-20T03:31:19;7.80;;;4.60;;
69172;SDS011;56280;49.662;8.408;2023-05-20T03:33:45;9.37;;;4.30;;
69172;SDS011;56280;49.662;8.408;2023-05-20T03:36:10;7.17;;;4.57;;
69172;SDS011;56280;49.662;8.408;2023-05-20T03:38:35;7.03;;;4.60;;
69172;SDS011;56280;49.662;8.408;2023-05-20T03:41:01;7.43;;;4.37;;
69172;SDS011;56280;49.662;8.408;2023-05-20T03:43:26;7.07;;;4.67;;
69172;SDS011;56280;49.662;8.408;2023-05-20T03:45:52;7.53;;;4.77;;
69172;SDS011;56280;49.662;8.408;2023-05-20T03:48:18;7.97;;;4.77;;
69172;SDS011;56280;49.662;8.408;2023-05-20T03:50:44;7.95;;;4.70;;
69172;SDS011;56280;49.662;8.408;2023-05-20T03:53:10;7.20;;;4.47;;
69172;SDS011;56280;49.662;8.408;2023-05-20T03:55:35;6.43;;;4.25;;
69172;SDS011;56280;49.662;8.408;2023-05-20T03:58:00;8.52;;;4.50;;
69172;SDS011;56280;49.662;8.408;2023-05-20T04:00:25;6.90;;;4.70;;
69172;SDS011;56280;49.662;8.408;2023-05-20T04:02:51;7.22;;;4.20;;
69172;SDS011;56280;49.662;8.408;2023-05-20T04:05:17;7.33;;;4.23;;
69172;SDS011;56280;49.662;8.408;2023-05-20T04:07:42;7.97;;;4.33;;
69172;SDS011;56280;49.662;8.408;2023-05-20T04:10:08;6.90;;;4.30;;
69172;SDS011;56280;49.662;8.408;2023-05-20T04:12:33;7.28;;;4.60;;
69172;SDS011;56280;49.662;8.408;2023-05-20T04:15:01;9.17;;;4.67;;
69172;SDS011;56280;49.662;8.408;2023-05-20T04:17:27;9.52;;;4.93;;
69172;SDS011;56280;49.662;8.408;2023-05-20T04:19:57;7.43;;;4.75;;
69172;SDS011;56280;49.662;8.408;2023-05-20T04:22:23;8.43;;;4.88;;
69172;SDS011;56280;49.662;8.408;2023-05-20T04:24:49;7.20;;;4.88;;
69172;SDS011;56280;49.662;8.408;2023-05-20T04:27:14;7.50;;;5.03;;
69172;SDS011;56280;49.662;8.408;2023-05-20T04:29:40;7.80;;;4.60;;
69172;SDS011;56280;49.662;8.408;2023-05-20T04:32:09;7.53;;;4.93;;
69172;SDS011;56280;49.662;8.408;2023-05-20T04:34:35;8.30;;;4.63;;
69172;SDS011;56280;49.662;8.408;2023-05-20T04:37:01;6.38;;;4.25;;
69172;SDS011;56280;49.662;8.408;2023-05-20T04:39:26;7.20;;;4.90;;
69172;SDS011;56280;49.662;8.408;2023-05-20T04:41:52;7.70;;;5.00;;
69172;SDS011;56280;49.662;8.408;2023-05-20T04:44:19;6.65;;;4.90;;
69172;SDS011;56280;49.662;8.408;2023-05-20T04:46:44;7.53;;;4.70;;
69172;SDS011;56280;49.662;8.408;2023-05-20T04:49:10;9.03;;;4.87;;
69172;SDS011;56280;49.662;8.408;2023-05-20T04:51:35;8.60;;;4.70;;
69172;SDS011;56280;49.662;8.408;2023-05-20T04:54:00;7.43;;;4.57;;
69172;SDS011;56280;49.662;8.408;2023-05-20T04:56:26;8.60;;;4.97;;
69172;SDS011;56280;49.662;8.408;2023-05-20T04:58:51;8.00;;;4.70;;
69172;SDS011;56280;49.662;8.408;2023-05-20T05:01:16;6.77;;;4.63;;
69172;SDS011;56280;49.662;8.408;2023-05-20T05:03:42;7.40;;;4.57;;
69172;SDS011;56280;49.662;8.408;2023-05-20T05:06:07;7.07;;;4.57;;
69172;SDS011;56280;49.662;8.408;2023-05-20T05:08:32;6.90;;;4.60;;
69172;SDS011;56280;49.662;8.408;2023-05-20T05:10:57;8.63;;;4.90;;
69172;SDS011;56280;49.662;8.408;2023-05-20T05:13:23;6.70;;;4.63;;
69172;SDS011;56280;49.662;8.408;2023-05-20T05:15:56;8.43;;;4.73;;
69172;SDS011;56280;49.662;8.408;2023-05-20T05:18:25;7.40;;;4.90;;
69172;SDS011;56280;49.662;8.408;2023-05-20T05:20:57;8.43;;;4.65;;
69172;SDS011;56280;49.662;8.408;2023-05-20T05:23:23;7.38;;;4.88;;
69172;SDS011;56280;49.662;8.408;2023-05-20T05:25:52;7.53;;;4.67;;
69172;SDS011;56280;49.662;8.408;2023-05-20T05:28:17;9.80;;;5.43;;
69172;SDS011;56280;49.662;8.408;2023-05-20T05:30:43;7.90;;;5.00;;
69172;SDS011;56280;49.662;8.408;2023-05-20T05:33:08;7.80;;;5.00;;
69172;SDS011;56280;49.662;8.408;2023-05-20T05:35:33;7.35;;;4.90;;
69172;SDS011;56280;49.662;8.408;2023-05-20T05:37:59;9.65;;;5.55;;
69172;SDS011;56280;49.662;8.408;2023-05-20T05:40:24;8.77;;;4.80;;
69172;SDS011;56280;49.662;8.408;2023-05-20T05:42:51;7.80;;;5.10;;
69172;SDS011;56280;49.662;8.408;2023-05-20T05:45:16;6.97;;;5.33;;
69172;SDS011;56280;49.662;8.408;2023-05-20T05:47:41;8.07;;;4.80;;
69172;SDS011;56280;49.662;8.408;2023-05-20T05:50:07;7.03;;;5.10;;
69172;SDS011;56280;49.662;8.408;2023-05-20T05:52:34;8.45;;;5.15;;
69172;SDS011;56280;49.662;8.408;2023-05-20T05:54:59;8.38;;;5.40;;
69172;SDS011;56280;49.662;8.408;2023-05-20T05:57:24;7.20;;;4.93;;
69172;SDS011;56280;49.662;8.408;2023-05-20T05:59:50;9.23;;;5.27;;
69172;SDS011;56280;49.662;8.408;2023-05-20T06:02:15;8.80;;;5.50;;
69172;SDS011;56280;49.662;8.408;2023-05-20T06:04:41;7.77;;;5.30;;
69172;SDS011;56280;49.662;8.408;2023-05-20T06:07:06;8.37;;;4.93;;
69172;SDS011;56280;49.662;8.408;2023-05-20T06:09:31;8.40;;;5.27;;
69172;SDS011;56280;49.662;8.408;2023-05-20T06:11:56;9.90;;;5.17;;
69172;SDS011;56280;49.662;8.408;2023-05-20T06:14:22;8.10;;;5.13;;
69172;SDS011;56280;49.662;8.408;2023-05-20T06:16:47;7.97;;;5.23;;
69172;SDS011;56280;49.662;8.408;2023-05-20T06:19:12;8.30;;;5.60;;
69172;SDS011;56280;49.662;8.408;2023-05-20T06:21:38;11.53;;;5.40;;
69172;SDS011;56280;49.662;8.408;2023-05-20T06:24:03;7.97;;;5.40;;
69172;SDS011;56280;49.662;8.408;2023-05-20T06:26:29;7.93;;;5.30;;
69172;SDS011;56280;49.662;8.408;2023-05-20T06:28:54;8.47;;;5.70;;
69172;SDS011;56280;49.662;8.408;2023-05-20T06:31:19;9.03;;;5.13;;
69172;SDS011;56280;49.662;8.408;2023-05-20T06:33:45;7.93;;;5.50;;
69172;SDS011;56280;49.662;8.408;2023-05-20T06:36:10;7.90;;;5.28;;
69172;SDS011;56280;49.662;8.408;2023-05-20T06:38:36;8.35;;;5.63;;
69172;SDS011;56280;49.662;8.408;2023-05-20T06:41:02;9.13;;;5.77;;
69172;SDS011;56280;49.662;8.408;2023-05-20T06:43:27;9.20;;;5.67;;
69172;SDS011;56280;49.662;8.408;2023-05-20T06:45:53;8.20;;;5.90;;
69172;SDS011;56280;49.662;8.408;2023-05-20T06:48:18;9.13;;;5.90;;
69172;SDS011;56280;49.662;8.408;2023-05-20T06:50:43;9.20;;;5.70;;
69172;SDS011;56280;49.662;8.408;2023-05-20T06:53:09;8.60;;;6.00;;
69172;SDS011;56280;49.662;8.408;2023-05-20T06:55:35;9.10;;;5.82;;
69172;SDS011;56280;49.662;8.408;2023-05-20T06:58:01;8.27;;;5.78;;
69172;SDS011;56280;49.662;8.408;2023-05-20T07:00:26;8.47;;;5.93;;
69172;SDS011;56280;49.662;8.408;2023-05-20T07:02:51;8.53;;;6.10;;
69172;SDS011;56280;49.662;8.408;2023-05-20T07:05:17;7.47;;;5.93;;
69172;SDS011;56280;49.662;8.408;2023-05-20T07:07:42;8.07;;;6.20;;
69172;SDS011;56280;49.662;8.408;2023-05-20T07:10:08;8.50;;;5.93;;
69172;SDS011;56280;49.662;8.408;2023-05-20T07:12:33;9.33;;;6.03;;
69172;SDS011;56280;49.662;8.408;2023-05-20T07:14:58;8.50;;;6.43;;
69172;SDS011;56280;49.662;8.408;2023-05-20T07:17:25;9.10;;;5.88;;
69172;SDS011;56280;49.662;8.408;2023-05-20T07:19:50;9.20;;;6.27;;
69172;SDS011;56280;49.662;8.408;2023-05-20T07:22:16;8.90;;;6.00;;
69172;SDS011;56280;49.662;8.408;2023-05-20T07:24:41;8.05;;;6.03;;
69172;SDS011;56280;49.662;8.408;2023-05-20T07:27:07;8.10;;;6.13;;
69172;SDS011;56280;49.662;8.408;2023-05-20T07:29:33;9.63;;;6.32;;
69172;SDS011;56280;49.662;8.408;2023-05-20T07:31:58;7.75;;;6.10;;
69172;SDS011;56280;49.662;8.408;2023-05-20T07:34:24;9.37;;;6.10;;
69172;SDS011;56280;49.662;8.408;2023-05-20T07:36:49;8.20;;;5.83;;
69172;SDS011;56280;49.662;8.408;2023-05-20T07:39:15;9.18;;;6.20;;
69172;SDS011;56280;49.662;8.408;2023-05-20T07:41:40;9.13;;;6.40;;
69172;SDS011;56280;49.662;8.408;2023-05-20T07:44:06;8.47;;;5.97;;
69172;SDS011;56280;49.662;8.408;2023-05-20T07:46:36;9.23;;;6.35;;
69172;SDS011;56280;49.662;8.408;2023-05-20T07:49:02;9.38;;;6.97;;
69172;SDS011;56280;49.662;8.408;2023-05-20T07:51:28;7.65;;;6.30;;
69172;SDS011;56280;49.662;8.408;2023-05-20T07:53:53;7.93;;;6.40;;
69172;SDS011;56280;49.662;8.408;2023-05-20T07:56:19;9.00;;;7.20;;
69172;SDS011;56280;49.662;8.408;2023-05-20T07:58:50;9.57;;;6.77;;
69172;SDS011;56280;49.662;8.408;2023-05-20T08:01:20;9.50;;;6.63;;
69172;SDS011;56280;49.662;8.408;2023-05-20T08:03:45;9.95;;;6.75;;
69172;SDS011;56280;49.662;8.408;2023-05-20T08:06:11;9.17;;;6.83;;
69172;SDS011;56280;49.662;8.408;2023-05-20T08:08:36;11.50;;;7.17;;
69172;SDS011;56280;49.662;8.408;2023-05-20T08:11:04;9.05;;;6.90;;
69172;SDS011;56280;49.662;8.408;2023-05-20T08:13:29;9.60;;;7.05;;
69172;SDS011;56280;49.662;8.408;2023-05-20T08:15:55;10.35;;;6.90;;
69172;SDS011;56280;49.662;8.408;2023-05-20T08:18:20;8.77;;;6.97;;
69172;SDS011;56280;49.662;8.408;2023-05-20T08:20:46;9.50;;;6.90;;
69172;SDS011;56280;49.662;8.408;2023-05-20T08:23:12;8.73;;;6.53;;
69172;SDS011;56280;49.662;8.408;2023-05-20T08:25:37;8.90;;;6.63;;
69172;SDS011;56280;49.662;8.408;2023-05-20T08:28:03;10.27;;;7.13;;
69172;SDS011;56280;49.662;8.408;2023-05-20T08:30:30;9.70;;;7.05;;
69172;SDS011;56280;49.662;8.408;2023-05-20T08:32:56;9.90;;;7.05;;
69172;SDS011;56280;49.662;8.408;2023-05-20T08:35:25;10.87;;;7.10;;
69172;SDS011;56280;49.662;8.408;2023-05-20T08:37:50;9.55;;;7.07;;
69172;SDS011;56280;49.662;8.408;2023-05-20T08:40:18;9.40;;;7.10;;
69172;SDS011;56280;49.662;8.408;2023-05-20T08:42:44;9.93;;;7.38;;
69172;SDS011;56280;49.662;8.408;2023-05-20T08:45:14;10.85;;;6.95;;
69172;SDS011;56280;49.662;8.408;2023-05-20T08:47:42;10.60;;;7.50;;
69172;SDS011;56280;49.662;8.408;2023-05-20T08:50:08;10.63;;;7.15;;
69172;SDS011;56280;49.662;8.408;2023-05-20T08:52:35;10.40;;;7.80;;
69172;SDS011;56280;49.662;8.408;2023-05-20T08:55:02;9.97;;;6.87;;
69172;SDS011;56280;49.662;8.408;2023-05-20T08:57:31;10.52;;;7.43;;
69172;SDS011;56280;49.662;8.408;2023-05-20T08:59:58;10.02;;;7.22;;
69172;SDS011;56280;49.662;8.408;2023-05-20T09:02:23;8.80;;;7.27;;
69172;SDS011;56280;49.662;8.408;2023-05-20T09:04:49;9.50;;;7.30;;
69172;SDS011;56280;49.662;8.408;2023-05-20T09:07:24;8.40;;;6.90;;
69172;SDS011;56280;49.662;8.408;2023-05-20T09:09:51;9.60;;;7.22;;
69172;SDS011;56280;49.662;8.408;2023-05-20T09:12:16;8.53;;;7.27;;
69172;SDS011;56280;49.662;8.408;2023-05-20T09:14:41;10.63;;;7.40;;
69172;SDS011;56280;49.662;8.408;2023-05-20T09:17:07;11.05;;;7.72;;
69172;SDS011;56280;49.662;8.408;2023-05-20T09:19:32;8.17;;;7.17;;
69172;SDS011;56280;49.662;8.408;2023-05-20T09:21:57;9.57;;;7.30;;
69172;SDS011;56280;49.662;8.408;2023-05-20T09:24:23;10.13;;;7.30;;
69172;SDS011;56280;49.662;8.408;2023-05-20T09:26:50;9.00;;;6.68;;
69172;SDS011;56280;49.662;8.408;2023-05-20T09:29:16;9.77;;;7.13;;
69172;SDS011;56280;49.662;8.408;2023-05-20T09:31:41;10.40;;;6.93;;
69172;SDS011;56280;49.662;8.408;2023-05-20T09:34:07;8.80;;;6.90;;
69172;SDS011;56280;49.662;8.408;2023-05-20T09:36:33;8.73;;;6.95;;
69172;SDS011;56280;49.662;8.408;2023-05-20T09:39:00;8.77;;;6.88;;
69172;SDS011;56280;49.662;8.408;2023-05-20T09:41:33;9.20;;;7.53;;
69172;SDS011;56280;49.662;8.408;2023-05-20T09:44:03;8.88;;;6.88;;
69172;SDS011;56280;49.662;8.408;2023-05-20T09:46:31;9.20;;;7.17;;
69172;SDS011;56280;49.662;8.408;2023-05-20T09:48:58;9.27;;;7.40;;
69172;SDS011;56280;49.662;8.408;2023-05-20T09:51:23;9.80;;;7.50;;
69172;SDS011;56280;49.662;8.408;2023-05-20T09:53:50;8.60;;;6.97;;
69172;SDS011;56280;49.662;8.408;2023-05-20T09:56:17;9.63;;;7.18;;
69172;SDS011;56280;49.662;8.408;2023-05-20T09:58:45;9.20;;;6.97;;
69172;SDS011;56280;49.662;8.408;2023-05-20T10:01:12;8.48;;;6.40;;
69172;SDS011;56280;49.662;8.408;2023-05-20T10:03:38;8.73;;;6.67;;
69172;SDS011;56280;49.662;8.408;2023-05-20T10:15:17;9.40;;;7.40;;
69172;SDS011;56280;49.662;8.408;2023-05-20T10:20:45;10.55;;;6.90;;
69172;SDS011;56280;49.662;8.408;2023-05-20T10:23:21;9.23;;;6.85;;
69172;SDS011;56280;49.662;8.408;2023-05-20T10:25:54;9.15;;;7.13;;
69172;SDS011;56280;49.662;8.408;2023-05-20T10:28:34;9.73;;;7.28;;
69172;SDS011;56280;49.662;8.408;2023-05-20T10:31:00;9.55;;;7.07;;
69172;SDS011;56280;49.662;8.408;2023-05-20T10:33:26;13.57;;;7.30;;
69172;SDS011;56280;49.662;8.408;2023-05-20T10:35:52;9.57;;;7.20;;
69172;SDS011;56280;49.662;8.408;2023-05-20T10:38:19;9.80;;;7.13;;
69172;SDS011;56280;49.662;8.408;2023-05-20T10:40:45;8.63;;;6.88;;
69172;SDS011;56280;49.662;8.408;2023-05-20T10:43:44;8.60;;;6.67;;
69172;SDS011;56280;49.662;8.408;2023-05-20T10:46:02;10.60;;;6.95;;
69172;SDS011;56280;49.662;8.408;2023-05-20T10:48:28;10.60;;;6.90;;
69172;SDS011;56280;49.662;8.408;2023-05-20T10:51:09;8.57;;;6.30;;
69172;SDS011;56280;49.662;8.408;2023-05-20T10:53:37;8.20;;;6.50;;
69172;SDS011;56280;49.662;8.408;2023-05-20T10:56:04;8.60;;;6.45;;
69172;SDS011;56280;49.662;8.408;2023-05-20T10:58:37;9.52;;;7.10;;
69172;SDS011;56280;49.662;8.408;2023-05-20T11:01:03;7.97;;;6.80;;
69172;SDS011;56280;49.662;8.408;2023-05-20T11:03:28;8.97;;;6.87;;
69172;SDS011;56280;49.662;8.408;2023-05-20T11:05:54;8.07;;;6.95;;
69172;SDS011;56280;49.662;8.408;2023-05-20T11:08:19;8.33;;;7.07;;
69172;SDS011;56280;49.662;8.408;2023-05-20T11:10:45;9.50;;;6.20;;
69172;SDS011;56280;49.662;8.408;2023-05-20T11:13:11;11.47;;;7.17;;
69172;SDS011;56280;49.662;8.408;2023-05-20T11:15:38;9.95;;;6.35;;
69172;SDS011;56280;49.662;8.408;2023-05-20T11:18:04;9.18;;;6.80;;
69172;SDS011;56280;49.662;8.408;2023-05-20T11:20:29;10.88;;;7.22;;
69172;SDS011;56280;49.662;8.408;2023-05-20T11:22:58;9.45;;;6.45;;
69172;SDS011;56280;49.662;8.408;2023-05-20T11:25:25;7.38;;;6.15;;
69172;SDS011;56280;49.662;8.408;2023-05-20T11:27:51;8.32;;;6.50;;
69172;SDS011;56280;49.662;8.408;2023-05-20T11:30:17;8.13;;;6.70;;
69172;SDS011;56280;49.662;8.408;2023-05-20T11:32:43;7.87;;;6.70;;
69172;SDS011;56280;49.662;8.408;2023-05-20T11:35:23;10.90;;;7.40;;
69172;SDS011;56280;49.662;8.408;2023-05-20T11:37:53;8.63;;;6.80;;
69172;SDS011;56280;49.662;8.408;2023-05-20T11:40:29;8.57;;;7.03;;
69172;SDS011;56280;49.662;8.408;2023-05-20T11:42:56;10.88;;;7.65;;
69172;SDS011;56280;49.662;8.408;2023-05-20T11:45:23;9.57;;;7.13;;
69172;SDS011;56280;49.662;8.408;2023-05-20T11:47:59;9.82;;;7.32;;
69172;SDS011;56280;49.662;8.408;2023-05-20T11:50:25;8.98;;;7.10;;
69172;SDS011;56280;49.662;8.408;2023-05-20T11:52:57;9.77;;;7.40;;
69172;SDS011;56280;49.662;8.408;2023-05-20T11:55:24;9.38;;;7.65;;
69172;SDS011;56280;49.662;8.408;2023-05-20T11:57:50;11.43;;;7.78;;
69172;SDS011;56280;49.662;8.408;2023-05-20T12:00:16;8.55;;;7.38;;
69172;SDS011;56280;49.662;8.408;2023-05-20T12:02:41;9.47;;;7.50;;
69172;SDS011;56280;49.662;8.408;2023-05-20T12:05:07;9.98;;;7.45;;
69172;SDS011;56280;49.662;8.408;2023-05-20T12:07:33;9.70;;;7.30;;
69172;SDS011;56280;49.662;8.408;2023-05-20T12:09:58;8.97;;;7.60;;
69172;SDS011;56280;49.662;8.408;2023-05-20T12:12:23;9.50;;;7.40;;
69172;SDS011;56280;49.662;8.408;2023-05-20T12:14:49;10.60;;;7.60;;
69172;SDS011;56280;49.662;8.408;2023-05-20T12:17:15;11.87;;;7.80;;
69172;SDS011;56280;49.662;8.408;2023-05-20T12:19:40;9.43;;;7.50;;
69172;SDS011;56280;49.662;8.408;2023-05-20T12:22:05;9.90;;;7.50;;
69172;SDS011;56280;49.662;8.408;2023-05-20T12:24:31;9.93;;;7.80;;
69172;SDS011;56280;49.662;8.408;2023-05-20T12:26:56;9.93;;;7.67;;
69172;SDS011;56280;49.662;8.408;2023-05-20T12:29:21;9.67;;;7.50;;
69172;SDS011;56280;49.662;8.408;2023-05-20T12:31:46;9.93;;;7.67;;
69172;SDS011;56280;49.662;8.408;2023-05-20T12:34:12;9.70;;;7.90;;
69172;SDS011;56280;49.662;8.408;2023-05-20T12:36:37;11.27;;;8.10;;
69172;SDS011;56280;49.662;8.408;2023-05-20T12:39:02;10.13;;;8.63;;
69172;SDS011;56280;49.662;8.408;2023-05-20T12:41:28;10.53;;;8.60;;
69172;SDS011;56280;49.662;8.408;2023-05-20T12:43:53;9.90;;;7.93;;
69172;SDS011;56280;49.662;8.408;2023-05-20T12:46:18;11.80;;;7.67;;
69172;SDS011;56280;49.662;8.408;2023-05-20T12:48:44;11.47;;;7.93;;
69172;SDS011;56280;49.662;8.408;2023-05-20T12:51:09;10.23;;;8.60;;
69172;SDS011;56280;49.662;8.408;2023-05-20T12:53:35;11.17;;;8.60;;
69172;SDS011;56280;49.662;8.408;2023-05-20T12:56:00;11.57;;;9.13;;
69172;SDS011;56280;49.662;8.408;2023-05-20T12:58:25;9.73;;;8.53;;
69172;SDS011;56280;49.662;8.408;2023-05-20T13:00:50;12.23;;;8.23;;
69172;SDS011;56280;49.662;8.408;2023-05-20T13:03:16;9.70;;;8.37;;
69172;SDS011;56280;49.662;8.408;2023-05-20T13:05:41;10.57;;;8.20;;
69172;SDS011;56280;49.662;8.408;2023-05-20T13:08:06;10.83;;;8.03;;
69172;SDS011;56280;49.662;8.408;2023-05-20T13:10:33;11.40;;;8.35;;
69172;SDS011;56280;49.662;8.408;2023-05-20T13:12:59;9.40;;;7.90;;
69172;SDS011;56280;49.662;8.408;2023-05-20T13:15:25;10.13;;;7.77;;
69172;SDS011;56280;49.662;8.408;2023-05-20T13:17:50;10.60;;;7.57;;
69172;SDS011;56280;49.662;8.408;2023-05-20T13:20:15;10.40;;;7.57;;
69172;SDS011;56280;49.662;8.408;2023-05-20T13:22:41;8.83;;;7.50;;
69172;SDS011;56280;49.662;8.408;2023-05-20T13:25:06;10.82;;;8.48;;
69172;SDS011;56280;49.662;8.408;2023-05-20T13:27:32;10.55;;;8.40;;
69172;SDS011;56280;49.662;8.408;2023-05-20T13:30:00;10.25;;;8.32;;
69172;SDS011;56280;49.662;8.408;2023-05-20T13:32:26;12.18;;;8.95;;
69172;SDS011;56280;49.662;8.408;2023-05-20T13:34:52;10.00;;;8.82;;
69172;SDS011;56280;49.662;8.408;2023-05-20T13:37:17;9.93;;;8.60;;
69172;SDS011;56280;49.662;8.408;2023-05-20T13:39:42;11.27;;;9.23;;
69172;SDS011;56280;49.662;8.408;2023-05-20T13:42:08;10.40;;;8.50;;
69172;SDS011;56280;49.662;8.408;2023-05-20T13:44:33;11.70;;;9.17;;
69172;SDS011;56280;49.662;8.408;2023-05-20T13:46:58;11.27;;;8.67;;
69172;SDS011;56280;49.662;8.408;2023-05-20T13:49:24;11.53;;;9.03;;
69172;SDS011;56280;49.662;8.408;2023-05-20T13:51:49;12.27;;;8.40;;
69172;SDS011;56280;49.662;8.408;2023-05-20T13:54:15;11.73;;;9.00;;
69172;SDS011;56280;49.662;8.408;2023-05-20T13:56:40;10.17;;;9.00;;
69172;SDS011;56280;49.662;8.408;2023-05-20T13:59:05;10.68;;;8.93;;
69172;SDS011;56280;49.662;8.408;2023-05-20T14:01:31;11.73;;;9.23;;
69172;SDS011;56280;49.662;8.408;2023-05-20T14:03:59;11.00;;;8.53;;
69172;SDS011;56280;49.662;8.408;2023-05-20T14:06:25;11.00;;;8.60;;
69172;SDS011;56280;49.662;8.408;2023-05-20T14:08:52;10.80;;;8.75;;
69172;SDS011;56280;49.662;8.408;2023-05-20T14:11:18;12.35;;;9.20;;
69172;SDS011;56280;49.662;8.408;2023-05-20T14:13:45;11.50;;;9.20;;
69172;SDS011;56280;49.662;8.408;2023-05-20T14:16:10;10.93;;;8.97;;
69172;SDS011;56280;49.662;8.408;2023-05-20T14:18:35;12.17;;;8.97;;
69172;SDS011;56280;49.662;8.408;2023-05-20T14:21:01;12.77;;;8.57;;
69172;SDS011;56280;49.662;8.408;2023-05-20T14:23:26;12.03;;;9.20;;
69172;SDS011;56280;49.662;8.408;2023-05-20T14:25:51;11.93;;;8.90;;
69172;SDS011;56280;49.662;8.408;2023-05-20T14:28:17;12.43;;;8.80;;
69172;SDS011;56280;49.662;8.408;2023-05-20T14:30:42;12.27;;;9.07;;
69172;SDS011;56280;49.662;8.408;2023-05-20T14:33:07;12.03;;;9.17;;
69172;SDS011;56280;49.662;8.408;2023-05-20T14:35:32;11.10;;;9.00;;
69172;SDS011;56280;49.662;8.408;2023-05-20T14:37:58;11.67;;;9.13;;
69172;SDS011;56280;49.662;8.408;2023-05-20T14:40:23;10.73;;;9.00;;
69172;SDS011;56280;49.662;8.408;2023-05-20T14:42:49;12.73;;;9.25;;
69172;SDS011;56280;49.662;8.408;2023-05-20T14:45:14;11.10;;;8.73;;
69172;SDS011;56280;49.662;8.408;2023-05-20T14:47:40;11.50;;;9.07;;
69172;SDS011;56280;49.662;8.408;2023-05-20T14:50:05;12.70;;;9.13;;
69172;SDS011;56280;49.662;8.408;2023-05-20T14:52:31;13.20;;;9.50;;
69172;SDS011;56280;49.662;8.408;2023-05-20T14:54:56;12.73;;;9.50;;